Time;durP1;ratioP1;P1;durP2;ratioP2;P2;SDS_P1;SDS_P2;PMS_P1;PMS_P2;Temp;Humidity;BMP_temperature;BMP_pressure;BME280_temperature;BME280_humidity;BME280_pressure;Samples;Min_cycle;Max_cycle;Signal;HPM_P1;HPM_P2
2021/12/17 00:00:58;;;;;;;17.13;10.85;;;;;;;9.93;70.76;103945.69;5008483;28;20468;-67
2021/12/17 00:03:38;;;;;;;16.70;10.95;;;;;;;9.92;71.23;103941.31;5007967;28;20066;-67
2021/12/17 00:06:19;;;;;;;20.45;11.80;;;;;;;9.91;71.23;103937.75;4997065;28;20109;-66
2021/12/17 00:08:51;;;;;;;17.35;11.57;;;;;;;9.91;70.93;103934.22;5003266;28;20529;-66
2021/12/17 00:11:22;;;;;;;18.83;11.57;;;;;;;9.91;71.32;103940.44;5000962;28;20101;-67
2021/12/17 00:13:53;;;;;;;19.08;12.93;;;;;;;9.75;71.20;103916.00;5005368;28;20077;-67
2021/12/17 00:16:24;;;;;;;16.88;11.65;;;;;;;9.90;71.23;103935.22;5007869;28;20069;-67
2021/12/17 00:19:08;;;;;;;18.60;11.52;;;;;;;9.89;71.45;103934.38;5037361;28;20138;-66
2021/12/17 00:49:30;;;;;;;17.30;12.18;;;;;;;9.86;71.27;103923.06;5013817;28;19930;-67
2021/12/17 00:52:00;;;;;;;18.70;12.48;;;;;;;9.87;71.90;103922.06;5017037;28;20236;-67
2021/12/17 00:54:33;;;;;;;17.85;12.02;;;;;;;9.86;71.82;103915.84;5010835;28;20073;-67
2021/12/17 00:57:07;;;;;;;20.55;12.93;;;;;;;9.86;71.75;103915.84;5019734;28;20089;-67
2021/12/17 00:59:36;;;;;;;19.63;13.52;;;;;;;9.87;71.27;103924.75;5020413;28;20050;-67
2021/12/17 01:02:08;;;;;;;18.60;12.85;;;;;;;9.88;72.03;103924.63;5021956;28;20081;-67
2021/12/17 01:04:36;;;;;;;20.20;13.55;;;;;;;9.89;71.83;103925.47;5017858;28;20103;-67
2021/12/17 01:07:05;;;;;;;19.95;12.95;;;;;;;9.88;71.93;103913.88;5018678;28;20081;-67
2021/12/17 01:09:33;;;;;;;18.65;12.45;;;;;;;9.91;71.75;103915.41;5021253;28;20073;-67
2021/12/17 01:12:04;;;;;;;20.45;13.02;;;;;;;9.90;71.68;103908.34;5021077;28;20510;-67
2021/12/17 01:14:33;;;;;;;17.58;12.27;;;;;;;9.90;71.30;103911.88;5023142;28;20065;-67
2021/12/17 01:17:02;;;;;;;20.05;13.02;;;;;;;9.90;71.60;103905.66;5017996;28;20081;-67
2021/12/17 01:19:47;;;;;;;18.10;12.82;;;;;;;9.90;71.56;103903.81;5022445;28;20053;-67
2021/12/17 01:22:42;;;;;;;20.30;14.27;;;;;;;9.91;71.84;103907.38;5054984;28;20081;-67
2021/12/17 01:25:16;;;;;;;22.17;12.82;;;;;;;9.92;71.69;103901.00;5067155;28;20056;-66
2021/12/17 01:36:02;;;;;;;22.55;13.82;;;;;;;9.88;71.78;103905.81;5067288;28;20045;-67
2021/12/17 01:44:03;;;;;;;20.77;14.07;;;;;;;9.86;72.37;103902.41;5051377;28;20084;-67
2021/12/17 01:46:34;;;;;;;21.67;14.52;;;;;;;9.86;72.20;103901.56;5068828;28;20084;-64
2021/12/17 01:49:23;;;;;;;24.98;14.95;;;;;;;9.85;72.55;103903.41;5060329;28;20054;-66
2021/12/17 02:00:20;;;;;;;21.65;14.25;;;;;;;9.83;72.64;103902.69;5065219;28;20051;-67
2021/12/17 02:02:52;;;;;;;23.77;15.55;;;;;;;9.83;72.35;103907.22;5065923;28;20077;-66
2021/12/17 02:05:20;;;;;;;23.90;16.92;;;;;;;9.82;72.38;103903.69;5066269;28;20079;-67
2021/12/17 02:07:51;;;;;;;29.58;17.58;;;;;;;9.82;72.57;103909.06;5066175;28;20064;-66
2021/12/17 02:30:02;;;;;;;41.33;25.33;;;;;;;9.83;73.01;103893.78;5072591;28;20063;-66
2021/12/17 02:32:32;;;;;;;36.35;23.10;;;;;;;9.81;73.41;103891.25;5063632;28;20092;-67
2021/12/17 02:37:48;;;;;;;43.08;24.42;;;;;;;9.84;73.19;103914.28;5065791;28;20049;-67
2021/12/17 02:42:26;;;;;;;39.63;25.08;;;;;;;9.83;73.82;103915.28;5077944;28;20091;-66
2021/12/17 02:45:54;;;;;;;42.72;25.90;;;;;;;9.82;73.03;103919.81;5065535;28;20061;-67
2021/12/17 02:48:24;;;;;;;41.20;25.25;;;;;;;9.83;73.57;103917.97;5076215;28;20048;-67
2021/12/17 02:50:54;;;;;;;44.13;27.45;;;;;;;9.82;73.06;103924.34;5069869;28;20094;-67
2021/12/17 02:53:26;;;;;;;42.03;26.20;;;;;;;9.82;73.62;103911.75;5069830;28;20072;-66
2021/12/17 02:55:56;;;;;;;45.22;26.75;;;;;;;9.83;73.41;103912.59;5074450;28;20122;-66
2021/12/17 02:58:27;;;;;;;40.67;26.42;;;;;;;9.83;73.46;103912.59;5064834;28;20049;-67
2021/12/17 03:00:56;;;;;;;38.28;25.58;;;;;;;9.83;73.25;103905.38;5068951;28;20049;-67
2021/12/17 03:03:30;;;;;;;38.08;24.00;;;;;;;9.81;73.54;103902.00;5074672;28;20053;-67
2021/12/17 03:05:58;;;;;;;42.08;24.80;;;;;;;9.83;73.21;103907.22;5074793;28;20115;-67
2021/12/17 03:08:29;;;;;;;41.72;25.23;;;;;;;9.72;73.09;103894.78;5065824;28;20072;-67
2021/12/17 03:10:58;;;;;;;38.63;25.75;;;;;;;9.80;73.33;103900.31;5057749;28;20211;-67
2021/12/17 03:13:27;;;;;;;39.95;24.45;;;;;;;9.81;73.43;103911.88;5059772;28;20056;-67
2021/12/17 03:15:59;;;;;;;42.03;26.50;;;;;;;9.81;73.21;103918.13;5075527;28;20087;-67
2021/12/17 03:18:54;;;;;;;45.58;25.58;;;;;;;9.81;73.21;103915.44;5065913;28;20077;-67
2021/12/17 03:24:09;;;;;;;38.70;24.90;;;;;;;9.81;73.75;103919.94;5063658;28;20067;-67
2021/12/17 03:26:37;;;;;;;42.35;25.02;;;;;;;9.81;73.04;103914.56;5074422;28;20049;-67
2021/12/17 03:29:08;;;;;;;42.15;25.52;;;;;;;9.81;73.71;103919.94;5064131;28;20143;-67
2021/12/17 03:31:36;;;;;;;42.38;26.48;;;;;;;9.79;73.71;103912.88;5068893;28;20045;-65
2021/12/17 03:34:16;;;;;;;44.10;25.67;;;;;;;9.78;73.82;103919.25;5072622;28;20041;-67
2021/12/17 03:36:45;;;;;;;45.78;27.90;;;;;;;9.78;73.68;103921.94;5078019;28;20137;-67
2021/12/17 03:39:15;;;;;;;45.30;27.90;;;;;;;9.79;73.66;103920.94;5065685;28;20091;-67
2021/12/17 03:41:50;;;;;;;42.03;25.40;;;;;;;9.77;73.48;103922.91;5071667;28;20104;-67
2021/12/17 03:44:19;;;;;;;46.13;26.60;;;;;;;9.77;73.69;103925.59;5061757;28;20049;-67
2021/12/17 03:46:48;;;;;;;48.70;28.08;;;;;;;9.77;74.08;103914.88;5062832;28;20076;-67
2021/12/17 03:49:17;;;;;;;44.42;26.58;;;;;;;9.76;73.88;103912.31;5057416;28;20046;-67
2021/12/17 03:51:51;;;;;;;44.22;27.35;;;;;;;9.76;73.73;103913.16;5071050;28;20052;-68
2021/12/17 03:54:21;;;;;;;45.13;26.65;;;;;;;9.76;73.42;103913.16;5063240;28;20041;-67
2021/12/17 03:56:49;;;;;;;46.92;25.70;;;;;;;9.77;73.91;103920.22;5076882;28;20060;-67
2021/12/17 03:59:17;;;;;;;45.13;26.85;;;;;;;9.78;73.88;103919.25;5053932;28;20144;-67
2021/12/17 04:01:44;;;;;;;52.50;27.02;;;;;;;9.78;73.92;103919.25;5064661;28;20076;-67
2021/12/17 04:04:12;;;;;;;45.10;27.15;;;;;;;9.79;73.80;103920.94;5070055;28;20087;-67
2021/12/17 04:06:41;;;;;;;50.25;26.42;;;;;;;9.79;73.58;103917.41;5063917;28;20096;-67
2021/12/17 04:09:09;;;;;;;50.22;27.05;;;;;;;9.79;73.85;103912.88;5057590;28;20083;-67
2021/12/17 04:11:38;;;;;;;44.92;26.23;;;;;;;9.78;73.72;103913.03;5065134;28;20073;-67
2021/12/17 04:14:07;;;;;;;49.20;28.42;;;;;;;9.79;73.73;103917.41;5064596;28;20045;-67
2021/12/17 04:16:35;;;;;;;48.65;26.08;;;;;;;9.79;73.66;103918.25;5065716;28;20049;-65
2021/12/17 04:19:04;;;;;;;48.13;25.67;;;;;;;9.78;73.62;103908.50;5068665;28;20045;-67
2021/12/17 04:21:32;;;;;;;46.47;26.73;;;;;;;9.79;73.91;103917.41;5057748;28;20052;-67
2021/12/17 04:24:00;;;;;;;43.55;24.92;;;;;;;9.79;73.88;103906.66;5063625;28;20068;-67
2021/12/17 04:26:28;;;;;;;43.13;23.77;;;;;;;9.78;73.99;103908.50;5068430;28;20052;-67
2021/12/17 04:28:57;;;;;;;44.88;24.38;;;;;;;9.78;73.66;103913.88;5054442;28;20044;-67
2021/12/17 04:31:28;;;;;;;48.75;25.05;;;;;;;9.78;74.01;103905.81;5068221;28;20113;-67
2021/12/17 04:33:56;;;;;;;46.17;24.55;;;;;;;9.78;73.76;103907.66;5065612;28;20047;-66
2021/12/17 04:36:28;;;;;;;45.20;24.90;;;;;;;9.76;73.75;103906.94;5071843;28;20168;-67
2021/12/17 04:38:57;;;;;;;48.38;24.33;;;;;;;9.76;73.92;103907.78;5063611;28;20121;-67
2021/12/17 04:44:14;;;;;;;47.65;24.42;;;;;;;9.75;73.80;103910.63;5070786;28;20073;-67
2021/12/17 04:46:47;;;;;;;48.30;23.70;;;;;;;9.73;73.68;103912.59;5062613;28;20049;-66
2021/12/17 04:57:41;;;;;;;47.20;22.55;;;;;;;9.72;73.72;103911.75;5021432;28;20094;-67
2021/12/17 05:00:16;;;;;;;41.75;21.83;;;;;;;9.72;73.73;103905.53;5012378;28;20589;-65
2021/12/17 05:02:47;;;;;;;39.78;21.85;;;;;;;9.72;73.45;103913.59;5026844;28;20046;-64
2021/12/17 05:05:17;;;;;;;39.03;21.23;;;;;;;9.70;73.58;103911.03;5016910;28;20042;-64
2021/12/17 05:07:50;;;;;;;44.30;22.23;;;;;;;9.70;73.82;103907.50;5016941;28;20054;-64
2021/12/17 05:10:26;;;;;;;39.75;21.83;;;;;;;9.70;74.08;103916.41;5021257;28;20083;-64
2021/12/17 05:18:30;;;;;;;43.15;21.83;;;;;;;9.70;74.21;103904.81;5018391;28;20054;-64
2021/12/17 05:21:02;;;;;;;42.15;21.58;;;;;;;9.69;74.44;103917.41;5009961;28;20054;-64
2021/12/17 05:23:34;;;;;;;41.85;20.95;;;;;;;9.65;73.96;103909.78;5016972;28;20046;-63
2021/12/17 05:26:05;;;;;;;38.45;20.15;;;;;;;9.64;74.23;103914.28;5022607;28;20065;-64
2021/12/17 05:28:34;;;;;;;41.22;21.05;;;;;;;9.66;73.97;103914.16;5050438;28;20057;-64
2021/12/17 05:31:04;;;;;;;41.13;22.17;;;;;;;9.68;73.86;103917.53;5070684;28;20061;-64
2021/12/17 05:33:31;;;;;;;40.30;20.58;;;;;;;9.69;74.30;103917.41;5065435;28;20155;-63
2021/12/17 05:35:59;;;;;;;41.25;20.48;;;;;;;9.70;73.60;103916.41;5063998;28;20124;-64
2021/12/17 05:38:28;;;;;;;44.42;21.48;;;;;;;9.70;73.98;103918.25;5062466;28;20055;-64
2021/12/17 05:40:57;;;;;;;40.97;20.45;;;;;;;9.70;73.68;103929.84;5062909;28;20379;-65
2021/12/17 05:43:25;;;;;;;39.58;20.63;;;;;;;9.70;73.76;103921.78;5061589;28;20071;-64
2021/12/17 05:46:07;;;;;;;42.78;20.83;;;;;;;9.70;73.81;103929.00;5058765;28;20045;-64
2021/12/17 05:48:37;;;;;;;42.83;19.85;;;;;;;9.70;73.84;103929.00;5062447;28;20148;-64
2021/12/17 05:51:09;;;;;;;35.28;18.33;;;;;;;9.70;73.83;103920.94;5062664;28;20045;-64
2021/12/17 05:53:37;;;;;;;35.78;18.33;;;;;;;9.70;74.44;103919.09;5066110;28;20076;-65
2021/12/17 05:56:05;;;;;;;37.03;17.65;;;;;;;9.70;73.74;103920.94;5065918;28;20064;-64
2021/12/17 05:58:33;;;;;;;36.28;19.80;;;;;;;9.70;73.87;103920.94;5065760;28;20055;-65
2021/12/17 06:01:01;;;;;;;36.65;18.40;;;;;;;9.70;73.87;103919.09;5065088;28;20100;-65
2021/12/17 06:03:30;;;;;;;39.42;19.25;;;;;;;9.71;74.24;103919.94;5077110;28;20045;-64
2021/12/17 06:05:59;;;;;;;34.30;16.25;;;;;;;9.70;73.89;103921.78;5070120;28;20049;-64
2021/12/17 06:08:26;;;;;;;36.30;16.15;;;;;;;9.71;73.90;103919.94;5065777;28;20049;-65
2021/12/17 06:10:54;;;;;;;34.47;17.23;;;;;;;9.69;74.24;103917.41;5065767;28;20079;-63
2021/12/17 06:13:22;;;;;;;31.58;16.73;;;;;;;9.68;74.01;103923.75;5065819;28;20081;-64
2021/12/17 06:15:50;;;;;;;35.08;15.80;;;;;;;9.68;74.19;103922.91;5066281;28;20064;-64
2021/12/17 06:18:18;;;;;;;32.97;16.25;;;;;;;9.68;73.71;103930.97;5078995;28;20080;-64
2021/12/17 06:20:46;;;;;;;33.25;16.90;;;;;;;9.65;73.92;103934.78;5057979;28;20041;-64
2021/12/17 06:23:15;;;;;;;30.10;15.13;;;;;;;9.63;74.37;103935.91;5065084;28;20045;-64
2021/12/17 06:25:43;;;;;;;31.02;16.50;;;;;;;9.63;74.36;103941.28;5051818;28;20085;-65
2021/12/17 06:28:11;;;;;;;32.50;14.90;;;;;;;9.63;73.83;103942.13;5071590;28;20569;-64
2021/12/17 06:30:39;;;;;;;31.30;15.40;;;;;;;9.63;74.13;103941.28;5064739;28;20160;-64
2021/12/17 06:33:06;;;;;;;32.65;14.65;;;;;;;9.62;74.10;103943.13;5065623;28;20088;-63
2021/12/17 06:35:34;;;;;;;30.20;14.82;;;;;;;9.63;74.42;103943.97;5052755;28;20048;-64
2021/12/17 06:38:04;;;;;;;32.05;14.80;;;;;;;9.60;74.85;103937.03;5053472;28;20083;-59
2021/12/17 06:40:33;;;;;;;31.23;14.95;;;;;;;9.59;74.86;103943.41;5073667;28;20075;-63
2021/12/17 06:43:01;;;;;;;34.85;16.52;;;;;;;9.60;74.29;103941.56;5064843;28;20052;-66
2021/12/17 06:45:50;;;;;;;31.33;13.82;;;;;;;9.61;74.40;103944.09;5064349;28;20060;-64
2021/12/17 06:48:22;;;;;;;34.72;16.20;;;;;;;9.59;74.13;103937.19;5065907;28;20045;-62
2021/12/17 06:57:21;;;;;;;29.42;13.30;;;;;;;9.58;74.34;103944.38;5069308;28;20061;-66
2021/12/17 06:59:39;;;;;;;32.20;13.75;;;;;;;9.59;74.57;103942.56;5065618;28;20048;-64
2021/12/17 07:21:41;;;;;;;26.02;11.52;;;;;;;10.65;70.65;103942.44;5064322;28;20056;-60
2021/12/17 07:32:43;;;;;;;27.27;12.43;;;;;;;11.14;68.80;103946.63;5046882;28;20083;-62
2021/12/17 07:40:43;;;;;;;32.10;13.38;;;;;;;10.85;69.88;103935.16;5061557;28;20080;-61
2021/12/17 07:43:22;;;;;;;24.85;11.88;;;;;;;10.70;70.16;103935.63;5062261;28;20052;-60
2021/12/17 07:45:52;;;;;;;26.08;11.95;;;;;;;10.58;70.73;103934.13;5062925;28;20060;-61
2021/12/17 07:48:20;;;;;;;25.65;12.50;;;;;;;10.51;71.17;103935.69;5068660;28;20049;-59
2021/12/17 07:50:48;;;;;;;25.73;13.38;;;;;;;10.44;71.35;103930.06;5048946;28;20642;-59
2021/12/17 07:53:17;;;;;;;25.73;12.38;;;;;;;10.38;71.41;103927.97;5054031;28;20083;-61
2021/12/17 07:55:45;;;;;;;26.13;12.15;;;;;;;10.33;71.66;103921.34;5061827;28;20131;-61
2021/12/17 07:58:13;;;;;;;25.40;11.98;;;;;;;10.27;72.32;103927.28;5065076;28;20164;-62
2021/12/17 08:00:41;;;;;;;27.92;11.98;;;;;;;10.23;72.25;103942.00;5047628;28;20076;-60
2021/12/17 08:03:11;;;;;;;28.58;12.80;;;;;;;10.19;72.14;103945.94;5049242;28;20051;-59
2021/12/17 08:05:39;;;;;;;31.20;13.23;;;;;;;10.17;72.53;103946.09;5057631;28;20086;-62
2021/12/17 08:08:07;;;;;;;27.70;11.85;;;;;;;10.11;72.35;103931.38;5052001;28;20489;-62
2021/12/17 08:10:35;;;;;;;24.40;11.32;;;;;;;10.10;72.59;103928.84;5046303;28;20081;-60
2021/12/17 08:13:05;;;;;;;23.65;11.25;;;;;;;10.08;73.00;103941.56;5060856;28;20077;-61
2021/12/17 08:15:39;;;;;;;26.33;13.65;;;;;;;10.06;72.68;103935.50;5061825;28;20064;-59
2021/12/17 08:24:26;;;;;;;26.42;11.82;;;;;;;9.97;73.62;103941.72;5010404;28;20065;-61
2021/12/17 08:26:56;;;;;;;27.75;11.80;;;;;;;9.93;73.73;103941.16;5018351;28;20049;-60
2021/12/17 08:29:44;;;;;;;29.25;12.77;;;;;;;9.94;73.17;103947.38;5016669;28;20070;-61
2021/12/17 08:32:12;;;;;;;27.85;12.65;;;;;;;10.10;73.16;103940.44;5019252;28;20124;-61
2021/12/17 08:34:40;;;;;;;24.80;11.82;;;;;;;10.27;72.28;103960.41;5017977;28;20046;-61
2021/12/17 08:37:10;;;;;;;27.33;12.13;;;;;;;10.41;72.08;103954.53;5016532;28;20136;-59
2021/12/17 08:39:39;;;;;;;26.50;12.80;;;;;;;10.54;71.36;103953.38;5020218;28;20364;-60
2021/12/17 08:42:08;;;;;;;34.40;13.55;;;;;;;10.59;71.45;103959.16;5020422;28;20053;-61
2021/12/17 08:44:35;;;;;;;23.17;11.23;;;;;;;10.77;70.69;103960.97;5016453;28;20056;-61
2021/12/17 08:47:05;;;;;;;29.00;12.30;;;;;;;10.93;69.88;103963.03;5020285;28;20088;-61
2021/12/17 08:49:34;;;;;;;27.73;13.32;;;;;;;10.87;69.81;103939.41;5021966;28;20143;-60
2021/12/17 08:52:07;;;;;;;28.60;11.43;;;;;;;10.90;69.79;103959.78;5015177;28;20072;-61
2021/12/17 08:54:37;;;;;;;30.40;12.52;;;;;;;10.81;70.45;103953.44;5015465;28;20050;-62
2021/12/17 08:57:05;;;;;;;25.85;11.07;;;;;;;10.72;70.92;103954.31;5040275;28;20144;-61
2021/12/17 08:59:34;;;;;;;28.98;12.07;;;;;;;10.61;71.13;103957.19;5065739;28;20068;-59
2021/12/17 09:02:02;;;;;;;28.30;12.90;;;;;;;10.52;71.17;103958.06;5058791;28;20056;-61
2021/12/17 09:04:30;;;;;;;29.45;11.77;;;;;;;10.47;71.82;103961.19;5065940;28;20099;-60
2021/12/17 09:06:58;;;;;;;26.85;11.10;;;;;;;10.42;71.67;103955.38;5064736;28;20057;-61
2021/12/17 09:09:27;;;;;;;27.98;12.05;;;;;;;10.36;71.95;103956.84;5067516;28;20071;-57
2021/12/17 09:11:57;;;;;;;28.02;11.07;;;;;;;10.33;71.94;103961.66;5060837;28;20072;-61
2021/12/17 09:14:25;;;;;;;25.17;11.43;;;;;;;10.30;72.37;103970.03;5051724;28;20298;-61
2021/12/17 09:16:53;;;;;;;25.58;11.77;;;;;;;10.25;72.45;103966.91;5049896;28;20049;-59
2021/12/17 09:19:21;;;;;;;25.85;11.43;;;;;;;10.23;72.47;103980.50;5067887;28;20121;-63
2021/12/17 09:21:49;;;;;;;23.30;12.18;;;;;;;10.19;72.82;103976.38;5063214;28;20748;-59
2021/12/17 09:24:17;;;;;;;27.40;11.90;;;;;;;10.18;73.13;103979.19;5070022;28;20048;-60
2021/12/17 09:26:44;;;;;;;26.40;11.50;;;;;;;10.14;73.28;103989.38;5060105;28;20099;-60
2021/12/17 09:29:13;;;;;;;28.35;11.85;;;;;;;10.11;73.00;103995.88;5065763;28;20057;-58
2021/12/17 09:31:42;;;;;;;28.13;12.68;;;;;;;10.03;73.15;103989.53;5055094;28;20076;-60
2021/12/17 09:34:10;;;;;;;26.08;11.35;;;;;;;10.06;73.47;104006.22;5064757;28;20045;-59
2021/12/17 09:36:38;;;;;;;28.42;13.13;;;;;;;10.05;73.51;104003.66;5075254;28;20104;-60
2021/12/17 09:39:06;;;;;;;22.65;11.93;;;;;;;10.03;73.59;104005.66;5066065;28;20053;-59
2021/12/17 09:41:34;;;;;;;24.25;11.45;;;;;;;9.92;73.59;103986.97;5065948;28;20057;-56
2021/12/17 09:44:02;;;;;;;25.77;12.15;;;;;;;10.03;73.71;104011.00;5066014;28;20072;-59
2021/12/17 09:46:31;;;;;;;24.23;11.80;;;;;;;9.99;73.75;104005.06;5053955;28;20045;-57
2021/12/17 09:48:59;;;;;;;23.52;11.48;;;;;;;10.01;73.93;104015.69;5066288;28;20490;-60
2021/12/17 09:51:27;;;;;;;25.90;12.65;;;;;;;10.11;73.61;104008.47;5065029;28;20045;-60
2021/12/17 09:53:55;;;;;;;27.95;11.43;;;;;;;10.26;72.97;104015.16;5073302;28;20052;-60
2021/12/17 09:56:24;;;;;;;27.73;12.55;;;;;;;10.43;72.50;104016.25;5066219;28;20076;-60
2021/12/17 09:58:52;;;;;;;24.63;12.90;;;;;;;10.58;71.46;104017.50;5061573;28;20052;-60
2021/12/17 10:01:20;;;;;;;22.48;12.13;;;;;;;10.73;71.04;104017.88;5055812;28;20047;-60
2021/12/17 10:04:16;;;;;;;23.45;11.13;;;;;;;10.92;70.04;104009.75;5064986;28;20065;-60
2021/12/17 10:06:44;;;;;;;26.10;13.02;;;;;;;11.06;69.71;104021.91;5062949;28;20049;-60
2021/12/17 10:09:13;;;;;;;22.60;11.45;;;;;;;11.20;69.19;104017.88;5052596;28;20045;-58
2021/12/17 10:12:01;;;;;;;24.27;12.23;;;;;;;11.24;69.04;104017.44;5050567;28;20060;-60
2021/12/17 10:14:29;;;;;;;26.25;11.98;;;;;;;11.15;69.41;104018.31;5062439;28;20045;-58
2021/12/17 10:17:08;;;;;;;22.90;10.90;;;;;;;11.04;69.81;104021.19;5063820;28;20041;-60
2021/12/17 10:19:45;;;;;;;22.85;11.55;;;;;;;10.89;70.38;104028.88;5061769;28;20040;-58
2021/12/17 10:22:15;;;;;;;25.67;10.57;;;;;;;10.79;70.98;104022.69;5052417;28;20083;-60
2021/12/17 10:24:45;;;;;;;22.23;11.48;;;;;;;10.71;71.27;104025.25;5064882;28;20049;-59
2021/12/17 10:27:20;;;;;;;20.02;10.15;;;;;;;10.65;71.32;104020.44;5070294;28;20049;-56
2021/12/17 10:29:48;;;;;;;23.60;9.98;;;;;;;10.58;71.67;104020.19;5065666;28;20431;-60
2021/12/17 10:32:18;;;;;;;20.65;10.52;;;;;;;10.53;71.71;104032.38;5069994;28;20066;-60
2021/12/17 10:35:06;;;;;;;20.48;10.38;;;;;;;10.46;72.22;104033.94;5072333;28;20045;-60
2021/12/17 10:37:37;;;;;;;23.48;10.43;;;;;;;10.43;72.24;104029.69;5053273;28;20053;-60
2021/12/17 10:40:17;;;;;;;19.45;10.73;;;;;;;10.37;72.47;104027.59;5060779;28;20053;-61
2021/12/17 10:42:53;;;;;;;17.13;9.43;;;;;;;10.33;72.90;104026.19;5061192;28;20534;-61
2021/12/17 10:45:26;;;;;;;19.85;9.57;;;;;;;10.29;72.69;104031.00;5055915;28;20080;-65
2021/12/17 10:48:26;;;;;;;18.85;9.98;;;;;;;10.29;72.94;104032.84;5058132;28;20087;-62
2021/12/17 10:51:02;;;;;;;21.00;9.75;;;;;;;10.29;73.14;104033.69;5062965;28;20049;-61
2021/12/17 10:53:30;;;;;;;21.00;11.05;;;;;;;10.28;73.21;104026.63;5051400;28;20451;-60
2021/12/17 10:55:59;;;;;;;20.40;9.32;;;;;;;10.27;72.83;104029.44;5056342;28;20045;-62
2021/12/17 10:58:28;;;;;;;19.55;9.30;;;;;;;10.25;73.40;104039.50;5069115;28;20055;-61
2021/12/17 11:00:59;;;;;;;22.92;9.45;;;;;;;10.16;73.62;104022.34;5063879;28;20083;-60
2021/12/17 11:03:27;;;;;;;18.67;9.40;;;;;;;10.22;73.34;104029.88;5060347;28;20113;-60
2021/12/17 11:05:56;;;;;;;14.02;7.70;;;;;;;10.19;73.33;104038.19;5059559;28;20060;-60
2021/12/17 11:08:33;;;;;;;19.67;10.40;;;;;;;10.19;73.67;104034.66;5061471;28;20053;-61
2021/12/17 11:11:09;;;;;;;18.52;8.73;;;;;;;10.08;73.62;104017.66;5054359;28;20115;-66
2021/12/17 11:13:38;;;;;;;18.80;8.93;;;;;;;10.14;73.52;104023.47;5060008;28;20068;-58
2021/12/17 11:16:06;;;;;;;21.40;9.00;;;;;;;10.13;73.55;104025.31;5067211;28;20087;-58
2021/12/17 11:18:34;;;;;;;19.08;9.23;;;;;;;10.11;74.03;104025.44;5067225;28;20044;-58
2021/12/17 11:21:03;;;;;;;18.67;8.70;;;;;;;10.10;73.86;104022.91;5055438;28;20049;-60
2021/12/17 11:23:33;;;;;;;20.40;9.07;;;;;;;10.09;74.08;104027.44;5056973;28;20148;-60
2021/12/17 11:26:01;;;;;;;17.95;9.00;;;;;;;10.09;74.08;104022.06;5066300;28;20053;-60
2021/12/17 11:28:29;;;;;;;17.45;9.00;;;;;;;10.08;74.21;104017.66;5071268;28;20053;-59
2021/12/17 11:30:57;;;;;;;19.80;9.10;;;;;;;10.08;74.27;104008.75;5053264;28;20067;-59
2021/12/17 11:33:26;;;;;;;15.90;8.93;;;;;;;10.07;74.04;104007.91;5056326;28;20131;-61
2021/12/17 11:35:55;;;;;;;18.30;9.27;;;;;;;10.07;74.15;104007.91;5062963;28;20430;-60
2021/12/17 11:38:37;;;;;;;16.33;8.48;;;;;;;10.09;74.09;104007.75;5062213;28;20045;-60
2021/12/17 11:41:31;;;;;;;23.85;8.82;;;;;;;10.10;74.29;104004.09;5067546;28;20446;-60
2021/12/17 11:44:01;;;;;;;15.65;8.88;;;;;;;10.11;74.27;104000.41;5059438;28;20072;-60
2021/12/17 11:46:31;;;;;;;19.10;9.68;;;;;;;10.11;74.44;104000.41;5047043;28;20159;-58
2021/12/17 11:49:02;;;;;;;17.00;9.32;;;;;;;10.11;73.80;103990.50;5062520;28;20048;-60
2021/12/17 11:51:36;;;;;;;19.00;10.35;;;;;;;10.11;74.30;103986.97;5062003;28;20059;-57
2021/12/17 11:54:11;;;;;;;16.92;9.07;;;;;;;10.11;74.09;103979.75;5052760;28;20053;-60
2021/12/17 11:56:44;;;;;;;17.98;9.70;;;;;;;10.11;74.31;103984.28;5065449;28;20052;-59
2021/12/17 11:59:35;;;;;;;18.42;9.27;;;;;;;10.11;74.03;103984.28;5062015;28;20103;-57
2021/12/17 12:02:19;;;;;;;15.57;8.40;;;;;;;10.10;73.92;103977.22;5062762;28;20063;-59
2021/12/17 12:04:56;;;;;;;19.63;8.93;;;;;;;10.10;74.15;103977.22;5057646;28;20052;-58
2021/12/17 12:07:36;;;;;;;18.10;9.52;;;;;;;10.10;74.26;103980.75;4355982;28;10000716;-59
2021/12/17 12:10:21;;;;;;;22.75;10.85;;;;;;;10.09;73.98;103992.50;5052420;28;20049;-59
2021/12/17 12:13:01;;;;;;;20.80;9.63;;;;;;;10.09;74.49;103987.13;5059010;28;20120;-59
2021/12/17 12:15:34;;;;;;;17.90;9.48;;;;;;;10.07;74.54;103994.47;5054179;28;20532;-59
2021/12/17 12:18:23;;;;;;;21.98;11.18;;;;;;;10.07;74.30;103990.94;5057485;28;20048;-59
2021/12/17 12:20:58;;;;;;;16.95;9.35;;;;;;;10.04;74.73;103989.38;5057147;28;20071;-58
2021/12/17 12:23:46;;;;;;;24.73;10.48;;;;;;;9.96;74.31;103978.50;5062686;28;20049;-59
2021/12/17 12:26:33;;;;;;;18.45;9.88;;;;;;;10.05;74.64;103992.91;5053097;28;20470;-59
2021/12/17 12:29:16;;;;;;;23.48;11.32;;;;;;;10.05;74.70;103995.59;5051375;28;20411;-59
2021/12/17 12:31:54;;;;;;;20.05;9.95;;;;;;;10.03;74.76;103990.38;5052837;28;20119;-59
2021/12/17 12:34:30;;;;;;;21.80;10.20;;;;;;;10.03;74.47;103986.84;5059486;28;20053;-55
2021/12/17 12:37:10;;;;;;;20.70;10.27;;;;;;;10.05;74.93;103984.84;5051414;28;20040;-51
2021/12/17 12:39:41;;;;;;;19.08;11.30;;;;;;;10.05;74.68;103977.63;5059086;28;20052;-58
2021/12/17 12:42:17;;;;;;;18.08;9.55;;;;;;;10.05;74.49;103979.47;5048090;28;20053;-59
2021/12/17 12:45:15;;;;;;;20.80;10.27;;;;;;;10.06;74.62;103973.13;5056301;28;20045;-59
2021/12/17 12:47:45;;;;;;;;;;;;;;;10.07;74.48;103978.34;5050075;28;20076;-59
2021/12/17 12:50:16;;;;;;;17.83;9.88;;;;;;;10.09;74.78;103970.16;5055284;28;19925;-59
2021/12/17 12:52:46;;;;;;;21.17;10.63;;;;;;;10.21;73.91;103971.72;5055000;28;20053;-59
2021/12/17 12:55:18;;;;;;;20.73;10.45;;;;;;;10.37;73.69;103969.31;5063597;28;20045;-59
2021/12/17 12:57:50;;;;;;;21.95;11.02;;;;;;;10.50;73.02;103968.97;5064013;28;20124;-57
2021/12/17 13:00:21;;;;;;;17.92;9.60;;;;;;;10.69;72.12;103968.91;5066500;28;20056;-60
2021/12/17 13:02:54;;;;;;;18.17;9.32;;;;;;;10.83;71.78;103958.66;5067396;28;20060;-60
2021/12/17 13:05:23;;;;;;;17.75;10.23;;;;;;;11.01;71.09;103975.75;5071992;28;20049;-60
2021/12/17 13:07:53;;;;;;;17.10;9.07;;;;;;;11.15;70.45;103972.56;5063300;28;20053;-58
2021/12/17 13:10:24;;;;;;;18.40;9.80;;;;;;;11.22;70.32;103979.03;5064287;28;20050;-58
2021/12/17 13:13:02;;;;;;;15.75;9.15;;;;;;;11.39;69.55;103972.84;5068868;28;20059;-58
2021/12/17 13:15:44;;;;;;;15.43;9.23;;;;;;;11.45;69.32;103952.56;5060705;28;20084;-58
2021/12/17 13:21:17;;;;;;;20.17;9.52;;;;;;;11.71;68.33;103961.59;5062776;28;20064;-58
2021/12/17 13:23:50;;;;;;;14.27;7.65;;;;;;;11.67;68.21;103962.88;5062581;28;20049;-58
2021/12/17 13:26:20;;;;;;;12.90;7.50;;;;;;;11.59;68.53;103968.19;5069906;28;20534;-58
2021/12/17 13:29:01;;;;;;;11.70;6.82;;;;;;;11.35;69.49;103965.22;5068284;28;20049;-59
2021/12/17 13:31:39;;;;;;;13.75;7.72;;;;;;;11.22;70.34;103962.03;5070111;28;20052;-58
2021/12/17 13:34:13;;;;;;;11.63;6.90;;;;;;;11.12;70.54;103966.63;5070276;28;20057;-58
2021/12/17 13:36:51;;;;;;;10.85;6.55;;;;;;;11.01;70.88;103962.28;5061888;28;20122;-49
2021/12/17 13:39:20;;;;;;;13.27;7.18;;;;;;;10.93;71.34;103964.88;5063845;28;20140;-58
2021/12/17 13:41:49;;;;;;;13.27;6.05;;;;;;;10.85;71.76;103970.13;5065037;28;20167;-58
2021/12/17 13:44:36;;;;;;;12.98;6.35;;;;;;;10.79;71.63;103965.34;5066057;28;20053;-48
2021/12/17 13:47:23;;;;;;;14.88;6.57;;;;;;;10.69;72.11;103958.16;5078165;28;20045;-58
2021/12/17 13:49:55;;;;;;;11.73;6.75;;;;;;;10.66;72.30;103962.97;5073013;28;20049;-59
2021/12/17 13:52:25;;;;;;;10.55;5.90;;;;;;;10.62;72.01;103958.88;5077167;28;20044;-59
2021/12/17 13:54:55;;;;;;;11.32;6.30;;;;;;;10.55;72.45;103955.94;5072653;28;20095;-58
2021/12/17 13:57:24;;;;;;;12.07;6.70;;;;;;;10.52;72.75;103958.06;5068819;28;20361;-59
2021/12/17 14:00:01;;;;;;;10.00;6.05;;;;;;;10.40;72.56;103947.47;5070814;28;20044;-57